createdAt,value
2019-04-30T00:01:26.097Z,14.27
2019-04-30T00:04:37.553Z,13.40
2019-04-30T00:07:38.205Z,13.30
2019-04-30T00:10:42.438Z,12.77
2019-04-30T00:13:50.200Z,13.20
2019-04-30T00:16:51.952Z,12.07
2019-04-30T00:19:59.869Z,14.03
2019-04-30T00:23:01.305Z,13.00
2019-04-30T00:26:10.144Z,12.63
2019-04-30T00:29:10.740Z,13.00
2019-04-30T00:32:15.938Z,12.73
2019-04-30T00:35:20.032Z,12.50
2019-04-30T00:38:25.273Z,12.57
2019-04-30T00:41:30.341Z,11.60
2019-04-30T00:44:35.664Z,12.13
2019-04-30T00:47:43.700Z,11.57
2019-04-30T00:50:45.780Z,12.07
2019-04-30T00:53:51.325Z,12.47
2019-04-30T00:56:57.478Z,12.43
2019-04-30T01:00:00.785Z,11.97
2019-04-30T01:03:09.509Z,12.40
2019-04-30T01:06:17.200Z,12.80
2019-04-30T01:09:19.354Z,12.80
2019-04-30T01:12:25.285Z,11.50
2019-04-30T01:15:29.193Z,12.33
2019-04-30T01:18:33.247Z,11.23
2019-04-30T01:21:40.186Z,11.60
2019-04-30T01:24:42.674Z,10.70
2019-04-30T01:27:49.008Z,10.70
2019-04-30T01:30:53.827Z,10.60
2019-04-30T01:33:58.989Z,9.37
2019-04-30T01:37:02.932Z,9.50
2019-04-30T01:40:12.040Z,9.70
2019-04-30T01:43:12.636Z,9.17
2019-04-30T01:46:16.540Z,9.50
2019-04-30T01:49:25.623Z,8.00
2019-04-30T01:52:30.906Z,8.27
2019-04-30T01:55:46.314Z,7.77
2019-04-30T01:58:51.772Z,7.53
2019-04-30T02:01:55.619Z,7.30
2019-04-30T02:04:59.517Z,7.57
2019-04-30T02:08:03.367Z,7.07
2019-04-30T02:11:08.926Z,7.20
2019-04-30T02:14:12.872Z,7.37
2019-04-30T02:17:16.775Z,7.57
2019-04-30T02:20:20.735Z,7.47
2019-04-30T02:23:24.635Z,6.43
2019-04-30T02:26:28.689Z,6.77
2019-04-30T02:29:32.855Z,6.27
2019-04-30T02:32:39.054Z,5.60
2019-04-30T02:35:43.831Z,6.07
2019-04-30T02:38:51.973Z,5.67
2019-04-30T02:41:56.059Z,5.80
2019-04-30T02:45:03.919Z,6.00
2019-04-30T02:48:11.436Z,5.47
2019-04-30T02:51:15.190Z,5.30
2019-04-30T02:54:23.906Z,5.20
2019-04-30T02:57:26.512Z,5.10
2019-04-30T03:00:32.837Z,4.70
2019-04-30T03:03:35.917Z,4.90
2019-04-30T03:06:40.691Z,5.10
2019-04-30T03:09:44.873Z,4.73
2019-04-30T03:12:49.985Z,4.93
2019-04-30T03:15:54.016Z,4.57
2019-04-30T03:18:59.666Z,4.77
2019-04-30T03:22:10.938Z,4.63
2019-04-30T03:25:14.907Z,4.60
2019-04-30T03:28:20.213Z,4.87
2019-04-30T03:31:24.405Z,4.73
2019-04-30T03:34:31.851Z,4.80
2019-04-30T03:37:33.831Z,5.03
2019-04-30T03:40:40.227Z,5.13
2019-04-30T03:43:43.238Z,5.03
2019-04-30T03:46:49.603Z,5.57
2019-04-30T03:49:52.653Z,5.20
2019-04-30T03:52:56.479Z,5.33
2019-04-30T03:56:01.437Z,5.40
2019-04-30T03:59:05.541Z,5.00
2019-04-30T04:02:12.846Z,4.93
2019-04-30T04:05:30.192Z,5.30
2019-04-30T04:08:39.525Z,5.37
2019-04-30T04:11:45.435Z,5.20
2019-04-30T04:14:51.004Z,4.90
2019-04-30T04:17:54.875Z,5.17
2019-04-30T04:21:11.070Z,5.43
2019-04-30T04:24:04.498Z,5.30
2019-04-30T04:27:09.710Z,5.17
2019-04-30T04:30:13.904Z,5.13
2019-04-30T04:33:19.924Z,5.00
2019-04-30T04:36:23.259Z,4.90
2019-04-30T04:39:29.614Z,5.13
2019-04-30T04:42:33.173Z,5.33
2019-04-30T04:45:40.378Z,5.10
2019-04-30T04:48:42.623Z,6.17
2019-04-30T04:51:49.168Z,6.10
2019-04-30T04:54:51.983Z,6.50
2019-04-30T04:57:55.855Z,6.33
2019-04-30T05:00:59.920Z,5.80
2019-04-30T05:04:03.857Z,5.53
2019-04-30T05:07:09.049Z,5.53
2019-04-30T05:10:14.244Z,5.97
2019-04-30T05:13:19.214Z,5.90
2019-04-30T05:16:23.218Z,6.00
2019-04-30T05:19:28.577Z,6.37
2019-04-30T05:22:32.559Z,6.73
2019-04-30T05:25:36.388Z,7.40
2019-04-30T05:28:40.283Z,6.83
2019-04-30T05:31:44.124Z,6.63
2019-04-30T05:34:49.667Z,6.53
2019-04-30T05:37:53.501Z,6.87
2019-04-30T05:40:59.428Z,6.30
2019-04-30T05:44:02.853Z,6.13
2019-04-30T05:47:06.934Z,6.20
2019-04-30T05:50:10.999Z,5.73
2019-04-30T05:53:14.840Z,5.40
2019-04-30T05:56:19.299Z,5.37
2019-04-30T05:59:23.364Z,5.87
2019-04-30T06:02:30.741Z,6.33
2019-04-30T06:05:32.848Z,6.57
2019-04-30T06:08:44.033Z,6.13
2019-04-30T06:11:49.517Z,6.30
2019-04-30T06:14:58.989Z,5.40
2019-04-30T06:18:12.855Z,5.80
2019-04-30T06:21:09.176Z,6.47
2019-04-30T06:24:13.137Z,5.80
2019-04-30T06:27:18.927Z,6.00
2019-04-30T06:30:24.740Z,6.43
2019-04-30T06:33:29.086Z,6.57
2019-04-30T06:36:33.478Z,6.20
2019-04-30T06:39:38.598Z,6.10
2019-04-30T06:42:42.720Z,7.27
2019-04-30T06:45:50.903Z,7.83
2019-04-30T06:48:53.271Z,8.40
2019-04-30T06:51:58.808Z,8.37
2019-04-30T06:55:03.040Z,7.97
2019-04-30T06:58:14.807Z,8.07
2019-04-30T07:01:12.397Z,6.77
2019-04-30T07:04:16.226Z,7.57
2019-04-30T07:07:23.094Z,6.97
2019-04-30T07:10:29.459Z,7.20
2019-04-30T07:13:34.653Z,8.33
2019-04-30T07:16:39.733Z,9.30
2019-04-30T07:19:54.233Z,9.10
2019-04-30T07:22:53.911Z,9.40
2019-04-30T07:25:54.650Z,9.03
2019-04-30T07:29:02.251Z,10.50
2019-04-30T07:32:04.005Z,11.90
2019-04-30T07:35:09.583Z,12.30
2019-04-30T07:38:13.562Z,12.20
2019-04-30T07:41:19.004Z,12.27
2019-04-30T07:44:35.459Z,11.50
2019-04-30T07:47:29.691Z,12.83
2019-04-30T07:50:34.371Z,12.23
2019-04-30T07:53:40.459Z,12.90
2019-04-30T07:56:44.073Z,13.27
2019-04-30T07:59:49.951Z,12.53
2019-04-30T08:03:00.832Z,13.60
2019-04-30T08:06:05.861Z,13.27
2019-04-30T08:09:11.210Z,14.60
2019-04-30T08:12:22.078Z,15.37
2019-04-30T08:15:20.615Z,14.47
2019-04-30T08:18:24.659Z,15.20
2019-04-30T08:21:28.892Z,16.17
2019-04-30T08:24:33.159Z,15.53
2019-04-30T08:27:39.125Z,14.17
2019-04-30T08:30:42.561Z,15.07
2019-04-30T08:33:46.500Z,14.83
2019-04-30T08:36:51.488Z,12.87
2019-04-30T08:39:55.534Z,12.33
2019-04-30T08:43:01.851Z,11.30
2019-04-30T08:46:05.967Z,12.10
2019-04-30T08:49:10.261Z,13.50
2019-04-30T08:52:14.429Z,12.37
2019-04-30T08:55:21.975Z,13.63
2019-04-30T08:58:24.040Z,14.83
2019-04-30T09:01:29.408Z,14.53
2019-04-30T09:04:33.556Z,14.87
2019-04-30T09:07:38.714Z,15.03
2019-04-30T09:10:42.844Z,15.00
2019-04-30T09:13:48.680Z,15.83
2019-04-30T09:16:52.303Z,16.33
2019-04-30T09:19:56.198Z,15.00
2019-04-30T09:23:00.017Z,15.70
2019-04-30T09:26:03.889Z,16.43
2019-04-30T09:29:09.335Z,16.30
2019-04-30T09:32:13.362Z,16.63
2019-04-30T09:35:19.088Z,15.10
2019-04-30T09:38:22.792Z,18.00
2019-04-30T09:41:28.657Z,16.37
2019-04-30T09:44:32.248Z,16.00
2019-04-30T09:47:36.196Z,15.40
2019-04-30T09:50:40.968Z,15.13
2019-04-30T09:53:55.527Z,16.33
2019-04-30T09:56:52.800Z,16.33
2019-04-30T09:59:57.453Z,16.53
2019-04-30T10:03:02.188Z,16.50
2019-04-30T10:06:09.808Z,16.27
2019-04-30T10:09:15.766Z,17.90
2019-04-30T10:12:21.709Z,16.60
2019-04-30T10:15:36.552Z,17.13
2019-04-30T10:18:41.332Z,16.00
2019-04-30T10:21:45.933Z,16.10
2019-04-30T10:24:50.829Z,15.10
2019-04-30T10:27:55.779Z,15.47
2019-04-30T10:31:04.967Z,15.17
2019-04-30T10:34:09.872Z,14.83
2019-04-30T10:37:15.030Z,16.30
2019-04-30T10:40:23.197Z,19.50
2019-04-30T10:43:29.051Z,20.23
2019-04-30T10:46:43.596Z,19.67
2019-04-30T10:49:49.529Z,19.67
2019-04-30T10:52:54.877Z,17.30
2019-04-30T10:56:00.426Z,17.83
2019-04-30T11:03:22.484Z,15.27
2019-04-30T11:06:34.292Z,15.30
2019-04-30T11:09:49.324Z,15.27
2019-04-30T11:12:58.555Z,16.30
2019-04-30T11:16:14.651Z,14.43
2019-04-30T11:19:14.363Z,14.43
2019-04-30T11:22:21.521Z,14.53
2019-04-30T11:25:26.669Z,13.27
2019-04-30T11:28:31.905Z,13.87
2019-04-30T11:31:41.154Z,14.17
2019-04-30T11:34:45.303Z,13.87
2019-04-30T11:37:49.777Z,13.43
2019-04-30T11:40:53.722Z,12.83
2019-04-30T11:44:01.823Z,12.77
2019-04-30T11:47:13.098Z,13.13
2019-04-30T11:50:18.054Z,14.23
2019-04-30T11:53:27.704Z,14.90
2019-04-30T11:56:27.851Z,15.67
2019-04-30T11:59:31.738Z,14.87
2019-04-30T12:02:39.208Z,15.40
2019-04-30T12:05:42.761Z,18.63
2019-04-30T12:09:01.375Z,26.17
2019-04-30T12:12:05.253Z,17.30
2019-04-30T12:15:09.455Z,16.70
2019-04-30T12:18:13.401Z,17.87
2019-04-30T12:21:17.336Z,16.97
2019-04-30T12:24:21.173Z,15.83
2019-04-30T12:27:25.080Z,16.07
2019-04-30T12:30:29.108Z,16.23
2019-04-30T12:33:33.032Z,16.60
2019-04-30T12:36:38.813Z,17.43
2019-04-30T12:39:42.973Z,17.63
2019-04-30T12:42:48.612Z,17.60
2019-04-30T12:46:02.218Z,18.17
2019-04-30T12:48:59.688Z,18.00
2019-04-30T12:52:05.320Z,17.90
2019-04-30T12:55:26.255Z,17.83
2019-04-30T12:58:30.177Z,18.87
2019-04-30T13:01:34.172Z,18.47
2019-04-30T13:04:39.364Z,18.17
2019-04-30T13:07:44.234Z,17.40
2019-04-30T13:10:49.186Z,17.57
2019-04-30T13:13:54.072Z,19.33
2019-04-30T13:16:59.017Z,18.47
2019-04-30T13:20:02.976Z,19.30
2019-04-30T13:23:08.661Z,19.73
2019-04-30T13:26:12.476Z,18.90
2019-04-30T13:29:17.889Z,21.37
2019-04-30T13:32:29.536Z,20.70
2019-04-30T13:35:28.904Z,19.83
2019-04-30T13:38:45.106Z,18.97
2019-04-30T13:41:44.555Z,18.47
2019-04-30T13:44:49.179Z,18.30
2019-04-30T13:47:52.688Z,18.40
2019-04-30T13:50:56.578Z,18.47
2019-04-30T13:54:01.220Z,18.30
2019-04-30T13:57:05.638Z,19.93
2019-04-30T14:00:21.050Z,18.57
2019-04-30T14:03:26.860Z,19.90
2019-04-30T14:06:32.322Z,20.00
2019-04-30T14:09:36.257Z,19.80
2019-04-30T14:12:41.652Z,19.53
2019-04-30T14:15:47.254Z,20.13
2019-04-30T14:18:51.279Z,20.37
2019-04-30T14:21:55.096Z,20.23
2019-04-30T14:24:59.030Z,19.63
2019-04-30T14:28:02.956Z,19.70
2019-04-30T14:31:06.835Z,20.10
2019-04-30T14:34:10.692Z,20.70
2019-04-30T14:37:14.617Z,21.23
2019-04-30T14:40:20.339Z,20.00
2019-04-30T14:43:26.621Z,20.00
2019-04-30T14:46:35.770Z,20.27
2019-04-30T14:49:56.454Z,20.20
2019-04-30T14:52:57.082Z,21.07
2019-04-30T14:56:19.673Z,22.23
2019-04-30T14:59:40.105Z,20.47
2019-04-30T15:02:45.635Z,20.87
2019-04-30T15:05:51.581Z,21.83
2019-04-30T15:08:55.061Z,21.47
2019-04-30T15:11:58.918Z,21.83
2019-04-30T15:15:02.783Z,21.53
2019-04-30T15:18:06.657Z,21.63
2019-04-30T15:21:10.559Z,22.70
2019-04-30T15:24:24.652Z,22.00
2019-04-30T15:27:28.975Z,21.20
2019-04-30T15:30:33.193Z,21.37
2019-04-30T15:33:38.672Z,21.57
2019-04-30T15:36:42.520Z,20.77
2019-04-30T15:39:46.606Z,21.90
2019-04-30T15:42:52.040Z,22.70
2019-04-30T15:45:57.300Z,23.03
2019-04-30T15:49:01.298Z,22.23
2019-04-30T15:52:05.537Z,21.70
2019-04-30T15:55:12.125Z,22.73
2019-04-30T15:58:16.455Z,21.70
2019-04-30T16:01:20.318Z,20.33
2019-04-30T16:04:25.792Z,20.07
2019-04-30T16:07:29.672Z,19.43
2019-04-30T16:10:51.735Z,20.00
2019-04-30T16:14:13.259Z,21.07
2019-04-30T16:17:29.185Z,21.73
2019-04-30T16:20:33.196Z,23.43
2019-04-30T16:23:38.628Z,23.47
2019-04-30T16:26:49.990Z,22.90
2019-04-30T16:29:49.793Z,34.07
2019-04-30T16:32:53.584Z,28.97
2019-04-30T16:35:58.976Z,33.80
2019-04-30T16:39:02.973Z,22.53
2019-04-30T16:42:09.007Z,23.37
2019-04-30T16:45:12.983Z,24.40
2019-04-30T16:48:19.173Z,29.30
2019-04-30T16:51:22.467Z,30.07
2019-04-30T16:54:26.376Z,29.33
2019-04-30T16:57:30.436Z,31.10
2019-04-30T17:00:34.659Z,31.73
2019-04-30T17:03:40.063Z,33.27
2019-04-30T17:06:49.261Z,30.43
2019-04-30T17:09:59.104Z,29.50
2019-04-30T17:13:19.652Z,26.80
2019-04-30T17:16:24.417Z,26.60
2019-04-30T17:19:29.166Z,25.97
2019-04-30T17:22:33.179Z,27.23
2019-04-30T17:25:37.142Z,26.87
2019-04-30T17:28:40.982Z,26.77
2019-04-30T17:31:44.938Z,26.77
2019-04-30T17:34:49.250Z,26.77
2019-04-30T17:37:53.258Z,26.70
2019-04-30T17:40:57.134Z,27.27
2019-04-30T17:44:01.060Z,28.17
2019-04-30T17:47:04.938Z,26.73
2019-04-30T17:50:11.340Z,25.33
2019-04-30T17:53:15.280Z,27.17
2019-04-30T17:56:19.248Z,27.90
2019-04-30T17:59:23.150Z,27.77
2019-04-30T18:02:29.354Z,27.73
2019-04-30T18:05:33.463Z,28.40
2019-04-30T18:08:37.577Z,28.37
2019-04-30T18:11:41.482Z,30.43
2019-04-30T18:14:45.562Z,30.77
2019-04-30T18:17:53.888Z,35.03
2019-04-30T18:20:59.462Z,37.13
2019-04-30T18:24:21.714Z,36.47
2019-04-30T18:27:29.336Z,31.20
2019-04-30T18:30:39.073Z,36.83
2019-04-30T18:33:43.303Z,41.93
2019-04-30T18:36:51.268Z,47.60
2019-04-30T18:39:55.331Z,52.93
2019-04-30T18:43:00.138Z,49.70
2019-04-30T18:46:04.214Z,49.30
2019-04-30T18:49:10.930Z,49.27
2019-04-30T18:52:14.997Z,47.30
2019-04-30T18:55:19.331Z,45.60
2019-04-30T18:58:37.548Z,41.67
2019-04-30T19:01:34.263Z,45.50
2019-04-30T19:04:40.740Z,46.57
2019-04-30T19:07:46.701Z,43.63
2019-04-30T19:10:52.395Z,45.10
2019-04-30T19:14:01.742Z,48.10
2019-04-30T19:17:26.679Z,43.67
2019-04-30T19:20:39.658Z,41.53
2019-04-30T19:23:43.675Z,45.97
2019-04-30T19:26:50.818Z,48.23
2019-04-30T19:29:54.801Z,49.53
2019-04-30T19:32:58.955Z,46.63
2019-04-30T19:36:04.403Z,49.17
2019-04-30T19:39:10.110Z,39.77
2019-04-30T19:42:14.308Z,44.23
2019-04-30T19:45:22.646Z,50.57
2019-04-30T19:48:27.486Z,45.77
2019-04-30T19:51:34.885Z,43.20
2019-04-30T19:54:40.337Z,53.13
2019-04-30T19:57:44.418Z,47.17
2019-04-30T20:00:49.876Z,63.17
2019-04-30T20:03:58.802Z,48.73
2019-04-30T20:07:02.899Z,44.77
2019-04-30T20:10:09.404Z,48.30
2019-04-30T20:13:13.417Z,43.37
2019-04-30T20:16:19.612Z,46.27
2019-04-30T20:19:23.919Z,54.50
2019-04-30T20:22:29.189Z,60.60
2019-04-30T20:25:33.299Z,69.47
2019-04-30T20:28:42.360Z,66.83
2019-04-30T20:31:48.872Z,58.90
2019-04-30T20:34:55.798Z,68.80
2019-04-30T20:38:14.558Z,74.40
2019-04-30T20:41:18.687Z,62.17
2019-04-30T20:44:22.848Z,66.67
2019-04-30T20:47:26.789Z,77.30
2019-04-30T20:50:30.699Z,89.87
2019-04-30T20:53:36.044Z,77.63
2019-04-30T20:56:39.970Z,80.27
2019-04-30T20:59:44.853Z,80.97
2019-04-30T21:02:48.776Z,63.87
2019-04-30T21:05:52.655Z,75.83
2019-04-30T21:08:56.544Z,70.83
2019-04-30T21:12:00.593Z,81.67
2019-04-30T21:15:06.923Z,76.13
2019-04-30T21:18:10.797Z,76.17
2019-04-30T21:21:14.833Z,81.40
2019-04-30T21:24:18.696Z,78.60
2019-04-30T21:27:24.234Z,81.77
2019-04-30T21:30:42.282Z,81.93
2019-04-30T21:33:38.471Z,76.20
2019-04-30T21:36:43.769Z,74.73
2019-04-30T21:39:53.658Z,72.07
2019-04-30T21:42:57.692Z,71.63
2019-04-30T21:46:03.691Z,73.60
2019-04-30T21:49:08.885Z,71.73
2019-04-30T21:52:15.013Z,70.70
2019-04-30T21:55:22.036Z,70.73
2019-04-30T21:58:25.997Z,75.10
2019-04-30T22:01:31.513Z,75.87
2019-04-30T22:04:36.972Z,79.47
2019-04-30T22:07:40.789Z,70.23
2019-04-30T22:10:44.722Z,69.43
2019-04-30T22:13:52.664Z,67.10
2019-04-30T22:16:59.418Z,71.53
2019-04-30T22:20:07.838Z,67.03
2019-04-30T22:23:12.486Z,68.83
2019-04-30T22:26:16.393Z,62.37
2019-04-30T22:29:23.034Z,61.27
2019-04-30T22:32:26.903Z,61.40
2019-04-30T22:35:32.920Z,60.40
2019-04-30T22:38:39.059Z,70.20
2019-04-30T22:41:44.057Z,70.20
2019-04-30T22:44:52.057Z,64.60
2019-04-30T22:47:55.997Z,70.57
2019-04-30T22:51:01.339Z,58.97
2019-04-30T22:54:05.652Z,63.07
2019-04-30T22:57:10.002Z,59.27
2019-04-30T23:00:17.466Z,58.97
2019-04-30T23:03:25.812Z,57.77
2019-04-30T23:06:30.928Z,59.23
2019-04-30T23:09:34.802Z,56.37
2019-04-30T23:12:40.254Z,53.17
2019-04-30T23:15:49.568Z,51.97
2019-04-30T23:18:53.440Z,55.03
2019-04-30T23:21:57.312Z,57.73
2019-04-30T23:25:01.238Z,54.77
2019-04-30T23:28:05.068Z,62.13
2019-04-30T23:31:10.444Z,57.03
2019-04-30T23:34:18.152Z,49.60
2019-04-30T23:37:21.312Z,45.53
2019-04-30T23:40:32.057Z,50.60
2019-04-30T23:43:39.024Z,53.33
2019-04-30T23:46:42.850Z,52.93
2019-04-30T23:49:46.737Z,54.37
2019-04-30T23:52:50.632Z,57.20
2019-04-30T23:55:58.331Z,61.07
2019-04-30T23:59:02.196Z,58.30
